Time;durP1;ratioP1;P1;durP2;ratioP2;P2;SDS_P1;SDS_P2;PMS_P1;PMS_P2;Temp;Humidity;BMP_temperature;BMP_pressure;BME280_temperature;BME280_humidity;BME280_pressure;Samples;Min_cycle;Max_cycle;Signal;HPM_P1;HPM_P2
2022/01/16 00:01:21;;;;;;;5.37;4.17;;;;;;;;;;5092638;28;20329;-87
2022/01/16 00:04:08;;;;;;;5.83;3.87;;;;;;;;;;5092771;28;20245;-87
2022/01/16 00:06:38;;;;;;;6.40;4.10;;;;;;;;;;5092575;28;20219;-87
2022/01/16 00:09:07;;;;;;;4.50;3.80;;;;;;;;;;5092936;28;20251;-87
2022/01/16 00:11:35;;;;;;;8.00;4.13;;;;;;;;;;5092778;28;20192;-87
2022/01/16 00:14:03;;;;;;;5.43;4.40;;;;;;;;;;5092926;28;20200;-87
2022/01/16 00:16:30;;;;;;;5.30;4.23;;;;;;;;;;5092655;28;20196;-87
2022/01/16 00:18:59;;;;;;;4.73;4.07;;;;;;;;;;5092834;28;20218;-87
2022/01/16 00:21:30;;;;;;;4.33;3.83;;;;;;;;;;5093068;28;20196;-87
2022/01/16 00:23:57;;;;;;;5.83;4.07;;;;;;;;;;5093850;28;20204;-87
2022/01/16 00:26:25;;;;;;;7.30;4.27;;;;;;;;;;5092025;28;20277;-87
2022/01/16 00:28:54;;;;;;;5.73;4.23;;;;;;;;;;5092594;28;20218;-88
2022/01/16 00:31:23;;;;;;;4.57;3.53;;;;;;;;;;5092616;28;20204;-87
2022/01/16 00:33:51;;;;;;;4.77;4.07;;;;;;;;;;5092818;28;20592;-87
2022/01/16 00:36:21;;;;;;;5.67;4.13;;;;;;;;;;5092173;28;20188;-87
2022/01/16 00:38:50;;;;;;;5.10;3.27;;;;;;;;;;5092434;28;20231;-87
2022/01/16 00:41:20;;;;;;;5.53;4.37;;;;;;;;;;5092207;28;20234;-87
2022/01/16 00:43:48;;;;;;;6.87;4.43;;;;;;;;;;5092467;28;20638;-87
2022/01/16 00:46:15;;;;;;;4.97;3.37;;;;;;;;;;5091996;28;20220;-87
2022/01/16 00:48:43;;;;;;;6.20;4.20;;;;;;;;;;5092052;28;20283;-87
2022/01/16 00:51:10;;;;;;;4.80;3.13;;;;;;;;;;5092226;28;20185;-85
2022/01/16 00:53:43;;;;;;;5.73;3.27;;;;;;;;;;5092210;28;20203;-87
2022/01/16 00:56:10;;;;;;;5.30;4.07;;;;;;;;;;5094377;28;20738;-87
2022/01/16 00:58:37;;;;;;;4.70;3.97;;;;;;;;;;5096230;28;20192;-86
2022/01/16 01:01:05;;;;;;;6.73;3.57;;;;;;;;;;5095970;28;20577;-86
2022/01/16 01:03:33;;;;;;;7.53;4.10;;;;;;;;;;5095927;28;20208;-86
2022/01/16 01:06:00;;;;;;;12.20;10.00;;;;;;;;;;5095638;28;20767;-86
2022/01/16 01:08:29;;;;;;;10.63;9.07;;;;;;;;;;5095456;28;20200;-86
2022/01/16 01:11:00;;;;;;;7.40;5.83;;;;;;;;;;5095705;28;20680;-86
2022/01/16 01:13:33;;;;;;;5.83;5.17;;;;;;;;;;5095564;28;20212;-86
2022/01/16 01:16:04;;;;;;;6.23;5.30;;;;;;;;;;5095653;28;20271;-86
2022/01/16 01:18:32;;;;;;;5.67;4.40;;;;;;;;;;5095869;28;20246;-87
2022/01/16 01:21:02;;;;;;;6.30;4.07;;;;;;;;;;5095406;28;20192;-85
2022/01/16 01:23:29;;;;;;;6.23;4.33;;;;;;;;;;5095268;28;20200;-86
2022/01/16 01:25:59;;;;;;;5.97;4.83;;;;;;;;;;5095328;28;20208;-86
2022/01/16 01:28:26;;;;;;;5.17;4.67;;;;;;;;;;5095058;28;20740;-85
2022/01/16 01:30:54;;;;;;;4.93;3.53;;;;;;;;;;5095023;28;20236;-87
2022/01/16 01:33:24;;;;;;;5.37;4.23;;;;;;;;;;5095129;28;20278;-86
2022/01/16 01:35:51;;;;;;;5.40;4.73;;;;;;;;;;5095120;28;20224;-86
2022/01/16 01:38:20;;;;;;;7.17;5.67;;;;;;;;;;5094792;28;20198;-85
2022/01/16 01:40:49;;;;;;;5.07;4.07;;;;;;;;;;5094822;28;20200;-85
2022/01/16 01:51:36;;;;;;;5.97;4.57;;;;;;;;;;5094940;28;20188;-85
2022/01/16 01:54:04;;;;;;;9.60;4.27;;;;;;;;;;5094453;28;20235;-85
2022/01/16 01:56:32;;;;;;;5.90;3.93;;;;;;;;;;5094460;28;20196;-85
2022/01/16 01:59:02;;;;;;;5.77;4.03;;;;;;;;;;5094419;28;20192;-85
2022/01/16 02:01:30;;;;;;;5.40;4.10;;;;;;;;;;5094605;28;20297;-84
2022/01/16 02:03:58;;;;;;;5.10;3.97;;;;;;;;;;5094208;28;20218;-85
2022/01/16 02:06:27;;;;;;;4.63;3.67;;;;;;;;;;5092542;28;20231;-85
2022/01/16 02:08:56;;;;;;;7.53;4.07;;;;;;;;;;5093880;28;20285;-85
2022/01/16 02:11:27;;;;;;;6.20;3.73;;;;;;;;;;5094087;28;20730;-84
2022/01/16 02:13:59;;;;;;;5.77;4.27;;;;;;;;;;5094363;28;20645;-84
2022/01/16 02:35:53;;;;;;;5.50;4.37;;;;;;;;;;5093652;28;20180;-83
2022/01/16 02:38:22;;;;;;;6.10;3.97;;;;;;;;;;5093754;28;20561;-84
2022/01/16 02:40:53;;;;;;;7.40;5.17;;;;;;;;;;5093413;28;20200;-84
2022/01/16 02:43:29;;;;;;;15.73;9.80;;;;;;;;;;5093423;28;20275;-84
2022/01/16 02:46:35;;;;;;;10.93;6.80;;;;;;;;;;5093510;28;20195;-84
2022/01/16 02:48:49;;;;;;;10.07;7.10;;;;;;;;;;5093184;28;20230;-84
2022/01/16 02:51:17;;;;;;;10.07;6.60;;;;;;;;;;5092504;28;20540;-83
2022/01/16 02:53:47;;;;;;;10.27;7.03;;;;;;;;;;5093618;28;20629;-84
2022/01/16 02:56:15;;;;;;;8.93;6.77;;;;;;;;;;5093177;28;20197;-83
2022/01/16 02:58:43;;;;;;;9.57;5.47;;;;;;;;;;5093107;28;20189;-83
2022/01/16 03:01:11;;;;;;;8.77;5.63;;;;;;;;;;5093159;28;20232;-83
2022/01/16 03:03:38;;;;;;;6.77;5.07;;;;;;;;;;5093315;28;20734;-83
2022/01/16 03:06:06;;;;;;;6.50;4.90;;;;;;;;;;5093075;28;20192;-83
2022/01/16 03:08:33;;;;;;;6.57;4.13;;;;;;;;;;5092755;28;20236;-84
2022/01/16 03:11:14;;;;;;;8.17;4.73;;;;;;;;;;5093035;28;20238;-82
2022/01/16 03:13:43;;;;;;;5.33;4.13;;;;;;;;;;5092899;28;20199;-83
2022/01/16 03:16:10;;;;;;;5.63;4.07;;;;;;;;;;5093140;28;20250;-83
2022/01/16 03:24:07;;;;;;;6.80;4.60;;;;;;;;;;5093069;28;20234;-82
2022/01/16 03:26:36;;;;;;;7.00;4.10;;;;;;;;;;5092472;28;20224;-83
2022/01/16 03:29:04;;;;;;;7.37;4.50;;;;;;;;;;5092623;28;20195;-83
2022/01/16 03:31:31;;;;;;;9.53;6.00;;;;;;;;;;5092591;28;20777;-83
2022/01/16 03:34:00;;;;;;;24.47;14.20;;;;;;;;;;5092452;28;20208;-83
2022/01/16 03:36:27;;;;;;;19.93;12.87;;;;;;;;;;5092505;28;20257;-83
2022/01/16 03:38:55;;;;;;;17.17;10.50;;;;;;;;;;5092490;28;20202;-83
2022/01/16 03:41:26;;;;;;;10.50;6.50;;;;;;;;;;5092468;28;20672;-83
2022/01/16 03:44:02;;;;;;;6.90;5.13;;;;;;;;;;5092676;28;20224;-84
2022/01/16 03:46:34;;;;;;;7.70;5.50;;;;;;;;;;5092546;28;20200;-82
2022/01/16 03:49:03;;;;;;;9.70;5.50;;;;;;;;;;5092355;28;20188;-82
2022/01/16 03:51:31;;;;;;;5.27;4.10;;;;;;;;;;5092256;28;20282;-82
2022/01/16 03:53:58;;;;;;;5.57;4.37;;;;;;;;;;5092235;28;20200;-82
2022/01/16 03:56:26;;;;;;;4.43;3.87;;;;;;;;;;5092212;28;20195;-83
2022/01/16 03:58:53;;;;;;;4.60;4.20;;;;;;;;;;5092412;28;20254;-83
2022/01/16 04:01:24;;;;;;;3.97;3.27;;;;;;;;;;5092187;28;20669;-83
2022/01/16 04:03:52;;;;;;;5.80;3.83;;;;;;;;;;5092217;28;20188;-82
2022/01/16 04:06:20;;;;;;;10.27;7.07;;;;;;;;;;5092064;28;20192;-82
2022/01/16 04:08:47;;;;;;;10.47;6.83;;;;;;;;;;5091948;28;20727;-83
2022/01/16 04:11:14;;;;;;;9.07;5.83;;;;;;;;;;5092045;28;20283;-83
2022/01/16 04:13:49;;;;;;;5.83;4.90;;;;;;;;;;5092140;28;20196;-83
2022/01/16 04:16:17;;;;;;;6.70;4.60;;;;;;;;;;5092089;28;20719;-83
2022/01/16 04:18:50;;;;;;;4.43;3.07;;;;;;;;;;5091992;28;20291;-83
2022/01/16 04:21:18;;;;;;;5.30;4.43;;;;;;;;;;5091952;28;20181;-83
2022/01/16 04:23:46;;;;;;;5.63;3.57;;;;;;;;;;5091903;28;20200;-82
2022/01/16 04:26:13;;;;;;;5.60;4.27;;;;;;;;;;5092030;28;20299;-83
2022/01/16 04:28:41;;;;;;;4.37;3.97;;;;;;;;;;5092932;28;20224;-83
2022/01/16 04:31:08;;;;;;;5.67;3.67;;;;;;;;;;5096163;28;20192;-82
2022/01/16 04:33:36;;;;;;;5.50;3.97;;;;;;;;;;5096090;28;20214;-83
2022/01/16 04:36:06;;;;;;;6.67;4.60;;;;;;;;;;5096195;28;20228;-83
2022/01/16 04:38:36;;;;;;;7.07;3.80;;;;;;;;;;5096341;28;20680;-83
2022/01/16 04:43:48;;;;;;;6.30;4.10;;;;;;;;;;5095991;28;20176;-83
2022/01/16 04:46:16;;;;;;;5.40;4.20;;;;;;;;;;5095821;28;20188;-83
2022/01/16 04:48:43;;;;;;;4.87;3.77;;;;;;;;;;5095626;28;20281;-83
2022/01/16 04:51:12;;;;;;;5.87;3.53;;;;;;;;;;5095881;28;20234;-83
2022/01/16 04:53:40;;;;;;;4.97;3.87;;;;;;;;;;5095608;28;20192;-83
2022/01/16 04:56:07;;;;;;;28.00;17.27;;;;;;;;;;5095562;28;20735;-82
2022/01/16 04:58:35;;;;;;;7.70;5.03;;;;;;;;;;5095778;28;20192;-82
2022/01/16 05:01:03;;;;;;;5.73;3.90;;;;;;;;;;5095516;28;20207;-83
2022/01/16 05:03:31;;;;;;;6.07;3.57;;;;;;;;;;5095645;28;20227;-83
2022/01/16 05:05:59;;;;;;;4.90;3.80;;;;;;;;;;5095393;28;20253;-82
2022/01/16 05:08:29;;;;;;;15.07;10.17;;;;;;;;;;5095317;28;20279;-83
2022/01/16 05:10:57;;;;;;;6.97;6.00;;;;;;;;;;5095658;28;20191;-83
2022/01/16 05:16:34;;;;;;;8.30;4.77;;;;;;;;;;5095364;28;20675;-83
2022/01/16 05:16:35;;;;;;;4.30;3.50;;;;;;;;;;5095147;28;20188;-83
2022/01/16 05:19:05;;;;;;;5.80;3.97;;;;;;;;;;5095247;28;20187;-83
2022/01/16 05:21:32;;;;;;;6.67;4.00;;;;;;;;;;5095108;28;20269;-82
2022/01/16 05:24:03;;;;;;;5.27;4.60;;;;;;;;;;5095025;28;20192;-82
2022/01/16 05:26:31;;;;;;;6.63;4.10;;;;;;;;;;5094995;28;20185;-82
2022/01/16 05:28:58;;;;;;;3.50;3.10;;;;;;;;;;5094834;28;20306;-82
2022/01/16 05:31:26;;;;;;;4.43;3.87;;;;;;;;;;5094815;28;20203;-82
2022/01/16 05:33:54;;;;;;;4.60;3.73;;;;;;;;;;5095134;28;20196;-82
2022/01/16 05:36:22;;;;;;;36.77;24.47;;;;;;;;;;5094731;28;20197;-82
2022/01/16 05:38:50;;;;;;;39.47;26.70;;;;;;;;;;5094984;28;20215;-83
2022/01/16 05:41:19;;;;;;;30.60;22.13;;;;;;;;;;5094006;28;20232;-83
2022/01/16 05:43:47;;;;;;;13.83;10.40;;;;;;;;;;5094608;28;20285;-83
2022/01/16 05:46:14;;;;;;;12.73;9.33;;;;;;;;;;5094755;28;20588;-83
2022/01/16 05:48:42;;;;;;;14.30;8.87;;;;;;;;;;5094772;28;20273;-83
2022/01/16 05:51:09;;;;;;;9.00;6.07;;;;;;;;;;5094479;28;20196;-83
2022/01/16 05:53:37;;;;;;;6.87;5.10;;;;;;;;;;5094293;28;20687;-83
2022/01/16 05:56:05;;;;;;;4.53;4.07;;;;;;;;;;5094379;28;20196;-83
2022/01/16 05:58:34;;;;;;;7.53;4.27;;;;;;;;;;5094287;28;20196;-82
2022/01/16 06:01:01;;;;;;;5.60;4.33;;;;;;;;;;5094689;28;20200;-82
2022/01/16 06:03:28;;;;;;;6.03;3.90;;;;;;;;;;5094169;28;20246;-82
2022/01/16 06:05:56;;;;;;;4.23;3.43;;;;;;;;;;5094174;28;20202;-82
2022/01/16 06:08:23;;;;;;;5.03;3.63;;;;;;;;;;5093741;28;20747;-82
2022/01/16 06:10:50;;;;;;;4.80;3.60;;;;;;;;;;5094483;28;20268;-82
2022/01/16 06:13:17;;;;;;;4.80;3.67;;;;;;;;;;5094005;28;20275;-83
2022/01/16 06:15:46;;;;;;;4.23;3.60;;;;;;;;;;5094095;28;20191;-83
2022/01/16 06:18:14;;;;;;;5.53;4.43;;;;;;;;;;5093995;28;20228;-83
2022/01/16 06:20:42;;;;;;;10.57;4.57;;;;;;;;;;5094298;28;20252;-83
2022/01/16 06:23:09;;;;;;;5.10;4.03;;;;;;;;;;5093768;28;20253;-82
2022/01/16 06:25:37;;;;;;;5.20;4.33;;;;;;;;;;5093744;28;20208;-82
2022/01/16 06:28:05;;;;;;;7.13;6.17;;;;;;;;;;5093609;28;20589;-82
2022/01/16 06:30:33;;;;;;;9.80;5.43;;;;;;;;;;5093707;28;20200;-82
2022/01/16 06:33:05;;;;;;;14.23;9.50;;;;;;;;;;5093915;28;20204;-83
2022/01/16 06:35:32;;;;;;;9.23;6.37;;;;;;;;;;5093754;28;20242;-82
2022/01/16 06:38:00;;;;;;;7.17;5.13;;;;;;;;;;5093579;28;20200;-83
2022/01/16 06:40:27;;;;;;;11.80;6.93;;;;;;;;;;5093605;28;20206;-83
2022/01/16 06:42:55;;;;;;;9.07;6.97;;;;;;;;;;5093364;28;20604;-83
2022/01/16 06:45:22;;;;;;;7.73;5.10;;;;;;;;;;5093504;28;20196;-82
2022/01/16 06:47:51;;;;;;;9.60;7.07;;;;;;;;;;5093251;28;20216;-83
2022/01/16 06:50:20;;;;;;;12.30;8.30;;;;;;;;;;5093312;28;20204;-82
2022/01/16 06:52:47;;;;;;;21.83;13.73;;;;;;;;;;5093565;28;20636;-83
2022/01/16 06:55:14;;;;;;;44.80;29.87;;;;;;;;;;5093211;28;20729;-83
2022/01/16 06:57:42;;;;;;;23.50;18.30;;;;;;;;;;5093457;28;20544;-83
2022/01/16 07:00:10;;;;;;;18.00;13.07;;;;;;;;;;5093089;28;20722;-83
2022/01/16 07:02:38;;;;;;;15.07;11.63;;;;;;;;;;5093077;28;20233;-83
2022/01/16 07:05:06;;;;;;;9.03;7.00;;;;;;;;;;5092963;28;20207;-83
2022/01/16 07:07:35;;;;;;;8.37;5.57;;;;;;;;;;5093029;28;20231;-84
2022/01/16 07:10:02;;;;;;;12.73;9.20;;;;;;;;;;5092873;28;20760;-85
2022/01/16 07:12:30;;;;;;;10.07;7.10;;;;;;;;;;5090191;28;20564;-84
2022/01/16 07:14:57;;;;;;;7.83;7.03;;;;;;;;;;5093220;28;20284;-85
2022/01/16 07:17:24;;;;;;;7.17;6.13;;;;;;;;;;5093185;28;20241;-88
2022/01/16 07:19:52;;;;;;;7.20;5.27;;;;;;;;;;5093158;28;20188;-87
2022/01/16 07:22:21;;;;;;;8.10;5.40;;;;;;;;;;5093586;28;20275;-87
2022/01/16 07:24:50;;;;;;;9.17;5.37;;;;;;;;;;5093243;28;20192;-89
2022/01/16 07:27:17;;;;;;;10.23;7.07;;;;;;;;;;5093563;28;20188;-90
2022/01/16 07:29:44;;;;;;;13.30;8.30;;;;;;;;;;5093440;28;20228;-92
2022/01/16 07:32:12;;;;;;;9.30;6.57;;;;;;;;;;5093572;28;20665;-88
2022/01/16 07:34:39;;;;;;;22.77;14.23;;;;;;;;;;5093506;28;20204;-89
2022/01/16 07:37:06;;;;;;;27.07;17.30;;;;;;;;;;5093658;28;20572;-90
2022/01/16 07:39:34;;;;;;;16.37;10.43;;;;;;;;;;5093554;28;20688;-91
2022/01/16 07:42:02;;;;;;;22.30;12.47;;;;;;;;;;5093695;28;20599;-90
2022/01/16 07:44:29;;;;;;;69.97;42.23;;;;;;;;;;5093650;28;20210;-89
2022/01/16 07:46:57;;;;;;;41.47;30.53;;;;;;;;;;5093616;28;20196;-89
2022/01/16 07:49:24;;;;;;;27.47;20.50;;;;;;;;;;5092811;28;20224;-87
2022/01/16 07:51:51;;;;;;;10.70;8.33;;;;;;;;;;5093244;28;20200;-87
2022/01/16 07:54:19;;;;;;;15.43;11.70;;;;;;;;;;5093018;28;20574;-87
2022/01/16 07:56:46;;;;;;;32.93;19.70;;;;;;;;;;5092737;28;20291;-87
2022/01/16 07:59:16;;;;;;;10.83;8.20;;;;;;;;;;5092433;28;20664;-87
2022/01/16 08:01:43;;;;;;;17.40;12.30;;;;;;;;;;5092618;28;20192;-87
2022/01/16 08:04:11;;;;;;;23.60;21.13;;;;;;;;;;5092298;28;20284;-87
2022/01/16 08:06:38;;;;;;;15.23;13.50;;;;;;;;;;5092623;28;20665;-88
2022/01/16 08:09:05;;;;;;;28.87;22.07;;;;;;;;;;5092802;28;20289;-87
2022/01/16 08:11:33;;;;;;;26.77;21.60;;;;;;;;;;5092781;28;20235;-88
2022/01/16 08:14:00;;;;;;;30.90;21.47;;;;;;;;;;5092852;28;20282;-88
2022/01/16 08:16:29;;;;;;;28.67;19.43;;;;;;;;;;5092713;28;20196;-88
2022/01/16 08:18:56;;;;;;;12.37;10.97;;;;;;;;;;5092911;28;20192;-88
2022/01/16 08:21:24;;;;;;;22.00;17.13;;;;;;;;;;5093122;28;20199;-88
2022/01/16 08:23:51;;;;;;;22.73;16.93;;;;;;;;;;5093104;28;20330;-89
2022/01/16 08:26:18;;;;;;;11.57;10.37;;;;;;;;;;5092737;28;20192;-88
2022/01/16 08:28:46;;;;;;;9.97;8.70;;;;;;;;;;5092747;28;20239;-89
2022/01/16 08:31:13;;;;;;;10.77;9.10;;;;;;;;;;5092695;28;20661;-88
2022/01/16 08:33:42;;;;;;;9.43;7.97;;;;;;;;;;5092683;28;20196;-88
2022/01/16 08:36:09;;;;;;;12.20;9.90;;;;;;;;;;5092902;28;20583;-88
2022/01/16 08:38:36;;;;;;;16.77;12.47;;;;;;;;;;5092901;28;20745;-88
2022/01/16 08:41:04;;;;;;;12.77;8.53;;;;;;;;;;5092606;28;20206;-87
2022/01/16 08:43:32;;;;;;;7.53;6.67;;;;;;;;;;5092307;28;20763;-88
2022/01/16 08:46:00;;;;;;;12.33;11.03;;;;;;;;;;5092552;28;20196;-88
2022/01/16 08:48:28;;;;;;;10.27;8.30;;;;;;;;;;5092278;28;20273;-87
2022/01/16 08:50:57;;;;;;;13.20;8.20;;;;;;;;;;5092540;28;20235;-88
2022/01/16 08:53:24;;;;;;;18.50;12.80;;;;;;;;;;5092364;28;20192;-88
2022/01/16 08:55:52;;;;;;;25.83;16.67;;;;;;;;;;5092969;28;20580;-88
2022/01/16 08:58:19;;;;;;;11.00;8.47;;;;;;;;;;5092802;28;20275;-88
2022/01/16 09:00:48;;;;;;;28.50;20.83;;;;;;;;;;5092483;28;20235;-89
2022/01/16 09:03:16;;;;;;;24.53;16.73;;;;;;;;;;5092685;28;20196;-88
2022/01/16 09:05:43;;;;;;;38.73;27.30;;;;;;;;;;5092774;28;20665;-89
2022/01/16 09:08:12;;;;;;;28.07;20.47;;;;;;;;;;5092331;28;20250;-89
2022/01/16 09:10:41;;;;;;;9.63;7.00;;;;;;;;;;5092213;28;20267;-88
2022/01/16 09:13:11;;;;;;;22.73;16.17;;;;;;;;;;5085114;28;20239;-88
2022/01/16 09:15:39;;;;;;;26.97;18.33;;;;;;;;;;5093486;28;20538;-89
2022/01/16 09:18:07;;;;;;;12.93;9.50;;;;;;;;;;5096428;28;20212;-88
2022/01/16 09:20:34;;;;;;;25.60;16.13;;;;;;;;;;5096286;28;20642;-89
2022/01/16 09:23:02;;;;;;;66.47;34.67;;;;;;;;;;5093209;28;20209;-89
2022/01/16 09:25:31;;;;;;;39.50;24.00;;;;;;;;;;5095661;28;20212;-88
2022/01/16 09:27:59;;;;;;;25.67;15.90;;;;;;;;;;5096220;28;20200;-88
2022/01/16 09:30:26;;;;;;;59.67;35.43;;;;;;;;;;5088748;28;20697;-89
2022/01/16 09:32:53;;;;;;;79.97;43.87;;;;;;;;;;5080457;28;20192;-89
2022/01/16 09:35:21;;;;;;;46.90;28.10;;;;;;;;;;5095494;28;20238;-88
2022/01/16 09:37:48;;;;;;;39.53;27.23;;;;;;;;;;5095494;28;20196;-88
2022/01/16 09:40:19;;;;;;;28.70;18.87;;;;;;;;;;5095539;28;20200;-88
2022/01/16 09:42:48;;;;;;;36.37;25.70;;;;;;;;;;5095389;28;20188;-88
2022/01/16 09:45:17;;;;;;;36.97;22.37;;;;;;;;;;5095733;28;20287;-89
2022/01/16 09:47:45;;;;;;;14.57;11.37;;;;;;;;;;5095346;28;20196;-88
2022/01/16 09:50:15;;;;;;;8.23;4.67;;;;;;;;;;5095127;28;20311;-87
2022/01/16 09:52:44;;;;;;;23.00;14.80;;;;;;;;;;5095676;28;20232;-87
2022/01/16 09:55:12;;;;;;;21.90;12.93;;;;;;;;;;5095038;28;20192;-87
2022/01/16 09:57:40;;;;;;;18.47;12.77;;;;;;;;;;5095466;28;20208;-88
2022/01/16 10:00:12;;;;;;;22.97;12.37;;;;;;;;;;5095620;28;20200;-88
2022/01/16 10:02:39;;;;;;;25.77;17.37;;;;;;;;;;5075234;28;20220;-88
2022/01/16 10:05:25;;;;;;;21.43;11.00;;;;;;;;;;5074755;28;20292;-89
2022/01/16 10:07:53;;;;;;;75.77;36.53;;;;;;;;;;5088281;28;20215;-86
2022/01/16 10:10:24;;;;;;;72.53;40.17;;;;;;;;;;5094747;28;20253;-89
2022/01/16 10:12:54;;;;;;;65.80;42.17;;;;;;;;;;5095418;28;20184;-90
2022/01/16 10:15:25;;;;;;;28.17;18.97;;;;;;;;;;5095277;28;20288;-89
2022/01/16 10:17:53;;;;;;;28.33;18.10;;;;;;;;;;5095227;28;20606;-89
2022/01/16 10:20:21;;;;;;;35.20;24.40;;;;;;;;;;5095021;28;20253;-88
2022/01/16 10:22:50;;;;;;;16.63;10.90;;;;;;;;;;5095159;28;20188;-89
2022/01/16 10:25:19;;;;;;;20.83;13.67;;;;;;;;;;5094687;28;20204;-89
2022/01/16 10:27:47;;;;;;;13.53;9.33;;;;;;;;;;5094639;28;20219;-89
2022/01/16 10:30:17;;;;;;;15.97;11.03;;;;;;;;;;5094549;28;20220;-89
2022/01/16 10:32:47;;;;;;;25.80;19.83;;;;;;;;;;5094561;28;20199;-89
2022/01/16 10:35:17;;;;;;;32.17;24.53;;;;;;;;;;5094994;28;20585;-89
2022/01/16 10:37:45;;;;;;;12.87;10.80;;;;;;;;;;5094799;28;20628;-90
2022/01/16 10:40:15;;;;;;;12.40;5.10;;;;;;;;;;5094837;28;20732;-88
2022/01/16 10:42:44;;;;;;;10.37;7.77;;;;;;;;;;5094376;28;20196;-89
2022/01/16 10:45:12;;;;;;;8.80;7.43;;;;;;;;;;5094650;28;20193;-88
2022/01/16 10:47:41;;;;;;;17.27;12.20;;;;;;;;;;5094530;28;20673;-89
2022/01/16 10:50:13;;;;;;;38.73;22.90;;;;;;;;;;5094603;28;20220;-89
2022/01/16 10:52:59;;;;;;;19.77;14.27;;;;;;;;;;5094173;28;20190;-89
2022/01/16 10:55:34;;;;;;;40.87;27.20;;;;;;;;;;5094384;28;20223;-88
2022/01/16 10:58:04;;;;;;;34.87;22.03;;;;;;;;;;5094106;28;20190;-89
2022/01/16 11:00:32;;;;;;;8.30;6.27;;;;;;;;;;5094040;28;20188;-89
2022/01/16 11:03:02;;;;;;;13.67;10.23;;;;;;;;;;5094478;28;20241;-88
2022/01/16 11:05:34;;;;;;;10.43;7.60;;;;;;;;;;5094870;28;20283;-88
2022/01/16 11:08:04;;;;;;;8.73;7.83;;;;;;;;;;5094006;28;20192;-88
2022/01/16 11:10:32;;;;;;;9.57;7.03;;;;;;;;;;5094026;28;20236;-89
2022/01/16 11:13:03;;;;;;;11.03;4.40;;;;;;;;;;5093953;28;20222;-89
2022/01/16 11:15:31;;;;;;;5.70;4.17;;;;;;;;;;5094192;28;20623;-89
2022/01/16 11:18:01;;;;;;;8.97;4.80;;;;;;;;;;5093876;28;20223;-89
2022/01/16 11:20:33;;;;;;;40.33;22.20;;;;;;;;;;5094089;28;20181;-89
2022/01/16 11:23:12;;;;;;;77.83;46.47;;;;;;;;;;5093901;28;20209;-89
2022/01/16 11:25:39;;;;;;;36.17;29.03;;;;;;;;;;5093790;28;20188;-90
2022/01/16 11:28:13;;;;;;;20.73;14.50;;;;;;;;;;5093591;28;20200;-90
2022/01/16 11:30:43;;;;;;;14.43;10.10;;;;;;;;;;5093948;28;20298;-89
2022/01/16 11:33:10;;;;;;;29.60;20.23;;;;;;;;;;5093630;28;20251;-89
2022/01/16 11:35:44;;;;;;;57.40;38.03;;;;;;;;;;5093807;28;20196;-90
2022/01/16 11:38:12;;;;;;;32.10;23.10;;;;;;;;;;5093078;28;20781;-90
2022/01/16 11:40:45;;;;;;;57.70;37.93;;;;;;;;;;5094462;28;20279;-89
2022/01/16 11:43:24;;;;;;;40.47;30.80;;;;;;;;;;5094342;28;20226;-89
2022/01/16 11:45:54;;;;;;;33.07;25.37;;;;;;;;;;5093691;28;20184;-89
2022/01/16 11:48:35;;;;;;;16.37;12.80;;;;;;;;;;5093595;28;20271;-89
2022/01/16 11:51:05;;;;;;;12.40;9.27;;;;;;;;;;5093492;28;20212;-90
2022/01/16 11:54:09;;;;;;;9.30;5.47;;;;;;;;;;5093173;28;20275;-89
2022/01/16 11:56:51;;;;;;;21.97;18.03;;;;;;;;;;5093267;28;20188;-89
2022/01/16 11:59:20;;;;;;;11.13;9.63;;;;;;;;;;5093362;28;20200;-90
2022/01/16 12:01:48;;;;;;;16.40;10.40;;;;;;;;;;5093580;28;20200;-90
2022/01/16 12:04:55;;;;;;;10.73;8.40;;;;;;;;;;5093581;28;20198;-90
2022/01/16 12:07:46;;;;;;;13.50;10.23;;;;;;;;;;5073475;28;20204;-89
2022/01/16 12:10:38;;;;;;;19.03;15.80;;;;;;;;;;5088006;28;20236;-89
2022/01/16 12:13:05;;;;;;;16.53;14.47;;;;;;;;;;5093247;28;20230;-89
2022/01/16 12:15:33;;;;;;;19.80;13.77;;;;;;;;;;5093112;28;20200;-90
2022/01/16 12:18:01;;;;;;;40.43;30.57;;;;;;;;;;5093212;28;20568;-89
2022/01/16 12:20:30;;;;;;;28.07;20.57;;;;;;;;;;5093152;28;20198;-89
2022/01/16 12:23:00;;;;;;;13.67;10.10;;;;;;;;;;5094133;28;20636;-90
2022/01/16 12:25:29;;;;;;;21.83;16.50;;;;;;;;;;5093140;28;20231;-89
2022/01/16 12:27:57;;;;;;;31.87;23.33;;;;;;;;;;5084080;28;20204;-89
2022/01/16 12:30:51;;;;;;;19.00;14.77;;;;;;;;;;5093031;28;20323;-90
2022/01/16 12:33:26;;;;;;;9.03;7.17;;;;;;;;;;5093075;28;20242;-89
2022/01/16 12:36:15;;;;;;;16.93;12.83;;;;;;;;;;5092716;28;20200;-89
2022/01/16 12:38:55;;;;;;;8.67;6.80;;;;;;;;;;5093004;28;20625;-89
2022/01/16 12:41:28;;;;;;;70.33;44.53;;;;;;;;;;5093075;28;20626;-89
2022/01/16 12:43:57;;;;;;;28.87;23.43;;;;;;;;;;5090391;28;20203;-90
2022/01/16 12:46:31;;;;;;;31.13;21.10;;;;;;;;;;5092877;28;20273;-89
2022/01/16 12:49:02;;;;;;;29.93;22.23;;;;;;;;;;5093097;28;20188;-89
2022/01/16 12:51:30;;;;;;;19.97;13.43;;;;;;;;;;5096703;28;20239;-89
2022/01/16 12:54:02;;;;;;;11.50;9.60;;;;;;;;;;5096526;28;20291;-89
2022/01/16 12:56:33;;;;;;;44.30;24.53;;;;;;;;;;5097027;28;20210;-89
2022/01/16 12:59:11;;;;;;;14.20;9.13;;;;;;;;;;5096896;28;20193;-90
2022/01/16 13:01:44;;;;;;;29.63;21.77;;;;;;;;;;5096518;28;20188;-88
2022/01/16 13:04:36;;;;;;;17.87;12.83;;;;;;;;;;5096538;28;20185;-89
2022/01/16 13:07:09;;;;;;;10.10;7.90;;;;;;;;;;5077325;28;20215;-88
2022/01/16 13:09:38;;;;;;;28.20;20.23;;;;;;;;;;5096022;28;20254;-88
2022/01/16 13:12:07;;;;;;;49.93;35.67;;;;;;;;;;5096513;28;20227;-88
2022/01/16 13:14:37;;;;;;;95.13;63.07;;;;;;;;;;5096105;28;20197;-89
2022/01/16 13:17:05;;;;;;;20.23;17.20;;;;;;;;;;5096067;28;20193;-88
2022/01/16 13:19:39;;;;;;;58.53;40.30;;;;;;;;;;5096387;28;20197;-89
2022/01/16 13:22:11;;;;;;;40.97;26.90;;;;;;;;;;5096572;28;20188;-88
2022/01/16 13:24:46;;;;;;;39.73;28.87;;;;;;;;;;5096158;28;20249;-88
2022/01/16 13:27:15;;;;;;;13.03;9.43;;;;;;;;;;5096029;28;20184;-88
2022/01/16 13:29:44;;;;;;;19.60;14.50;;;;;;;;;;5096122;28;20699;-88
2022/01/16 13:32:13;;;;;;;13.27;11.20;;;;;;;;;;5095785;28;20292;-88
2022/01/16 13:34:46;;;;;;;114.60;49.97;;;;;;;;;;5096196;28;20196;-88
2022/01/16 13:37:16;;;;;;;106.43;46.97;;;;;;;;;;5095838;28;20198;-88
2022/01/16 13:39:47;;;;;;;74.53;39.47;;;;;;;;;;5095667;28;20195;-88
2022/01/16 13:42:37;;;;;;;23.43;17.20;;;;;;;;;;5095513;28;20671;-88
2022/01/16 13:45:24;;;;;;;40.20;28.27;;;;;;;;;;5095805;28;20224;-88
2022/01/16 13:47:54;;;;;;;24.60;18.87;;;;;;;;;;5095901;28;20201;-88
2022/01/16 13:50:22;;;;;;;23.33;16.77;;;;;;;;;;5095197;28;20260;-89
2022/01/16 13:52:54;;;;;;;30.77;20.33;;;;;;;;;;5095818;28;20196;-88
2022/01/16 13:55:24;;;;;;;32.90;22.97;;;;;;;;;;5095699;28;20241;-88
2022/01/16 13:57:51;;;;;;;20.00;15.90;;;;;;;;;;5095691;28;20212;-88
2022/01/16 14:00:21;;;;;;;14.53;11.67;;;;;;;;;;5095671;28;20257;-88
2022/01/16 14:02:48;;;;;;;16.97;12.23;;;;;;;;;;5094468;28;20196;-89
2022/01/16 14:05:25;;;;;;;16.33;11.87;;;;;;;;;;5095799;28;20637;-88
2022/01/16 14:07:53;;;;;;;35.47;25.17;;;;;;;;;;5095177;28;20203;-88
2022/01/16 14:10:38;;;;;;;35.63;25.67;;;;;;;;;;5094962;28;20228;-88
2022/01/16 14:13:07;;;;;;;14.67;10.17;;;;;;;;;;5095788;28;20196;-88
2022/01/16 14:15:35;;;;;;;14.20;11.07;;;;;;;;;;5094748;28;20291;-88
2022/01/16 14:18:07;;;;;;;33.23;22.40;;;;;;;;;;5094913;28;20718;-88
2022/01/16 14:20:52;;;;;;;24.00;17.60;;;;;;;;;;5095253;28;20213;-88
2022/01/16 14:23:20;;;;;;;17.70;9.87;;;;;;;;;;5094893;28;20249;-88
2022/01/16 14:25:48;;;;;;;16.73;12.67;;;;;;;;;;5095242;28;20235;-88
2022/01/16 14:28:16;;;;;;;14.87;9.73;;;;;;;;;;5094348;28;20199;-88
2022/01/16 14:30:43;;;;;;;26.20;18.57;;;;;;;;;;5094556;28;20224;-89
2022/01/16 14:33:10;;;;;;;20.83;15.40;;;;;;;;;;5094873;28;20585;-88
2022/01/16 14:35:37;;;;;;;16.47;10.50;;;;;;;;;;5094807;28;20228;-88
2022/01/16 14:38:05;;;;;;;16.93;10.30;;;;;;;;;;5094750;28;20196;-88
2022/01/16 14:40:32;;;;;;;14.10;11.33;;;;;;;;;;5094922;28;20605;-89
2022/01/16 14:43:04;;;;;;;19.10;14.13;;;;;;;;;;5086904;28;20241;-88
2022/01/16 14:45:33;;;;;;;15.03;11.07;;;;;;;;;;5074317;28;20201;-88
2022/01/16 14:48:00;;;;;;;16.33;12.03;;;;;;;;;;5074401;28;20216;-88
2022/01/16 14:50:28;;;;;;;34.60;25.00;;;;;;;;;;5074210;28;20288;-88
2022/01/16 14:52:55;;;;;;;22.07;18.37;;;;;;;;;;5074086;28;20658;-88
2022/01/16 14:55:23;;;;;;;19.50;17.30;;;;;;;;;;5073926;28;20615;-88
2022/01/16 14:57:50;;;;;;;14.93;12.83;;;;;;;;;;5074070;28;20201;-89
2022/01/16 15:00:19;;;;;;;20.33;15.30;;;;;;;;;;5073811;28;20288;-88
2022/01/16 15:02:47;;;;;;;34.77;22.30;;;;;;;;;;5079357;28;20200;-88
2022/01/16 15:05:14;;;;;;;21.27;16.23;;;;;;;;;;5093857;28;20196;-88
2022/01/16 15:07:44;;;;;;;13.40;9.60;;;;;;;;;;5093396;28;20196;-88
2022/01/16 15:10:12;;;;;;;12.93;9.70;;;;;;;;;;5093694;28;20231;-88
2022/01/16 15:12:40;;;;;;;15.33;10.47;;;;;;;;;;5093057;28;20238;-88
2022/01/16 15:15:11;;;;;;;12.40;9.00;;;;;;;;;;5093171;28;20262;-88
2022/01/16 15:17:44;;;;;;;15.13;10.27;;;;;;;;;;5093238;28;20189;-88
2022/01/16 15:20:18;;;;;;;25.87;16.73;;;;;;;;;;5093878;28;20215;-88